sensor_id;sensor_type;location;lat;lon;timestamp;P1;durP1;ratioP1;P2;durP2;ratioP2
52124;SDS011;38119;52.710;6.398;2023-07-22T00:02:20;14.57;;;8.43;;
52124;SDS011;38119;52.710;6.398;2023-07-22T00:04:47;12.10;;;7.25;;
52124;SDS011;38119;52.710;6.398;2023-07-22T00:07:14;16.98;;;8.30;;
52124;SDS011;38119;52.710;6.398;2023-07-22T00:09:41;15.32;;;8.13;;
52124;SDS011;38119;52.710;6.398;2023-07-22T00:12:08;14.77;;;7.82;;
52124;SDS011;38119;52.710;6.398;2023-07-22T00:14:35;12.27;;;8.10;;
52124;SDS011;38119;52.710;6.398;2023-07-22T00:17:03;13.68;;;7.80;;
52124;SDS011;38119;52.710;6.398;2023-07-22T00:19:29;16.77;;;8.13;;
52124;SDS011;38119;52.710;6.398;2023-07-22T00:21:55;17.45;;;8.70;;
52124;SDS011;38119;52.710;6.398;2023-07-22T00:24:20;17.08;;;8.77;;
52124;SDS011;38119;52.710;6.398;2023-07-22T00:26:47;15.05;;;8.25;;
52124;SDS011;38119;52.710;6.398;2023-07-22T00:29:14;15.73;;;7.72;;
52124;SDS011;38119;52.710;6.398;2023-07-22T00:31:41;16.63;;;8.50;;
52124;SDS011;38119;52.710;6.398;2023-07-22T00:34:06;14.48;;;7.97;;
52124;SDS011;38119;52.710;6.398;2023-07-22T00:36:32;18.77;;;8.70;;
52124;SDS011;38119;52.710;6.398;2023-07-22T00:38:58;15.02;;;8.18;;
52124;SDS011;38119;52.710;6.398;2023-07-22T00:41:23;16.23;;;7.82;;
52124;SDS011;38119;52.710;6.398;2023-07-22T00:43:49;13.35;;;8.05;;
52124;SDS011;38119;52.710;6.398;2023-07-22T00:46:15;14.57;;;8.45;;
52124;SDS011;38119;52.710;6.398;2023-07-22T00:48:40;14.23;;;8.18;;
52124;SDS011;38119;52.710;6.398;2023-07-22T00:51:07;14.73;;;8.02;;
52124;SDS011;38119;52.710;6.398;2023-07-22T00:53:33;15.10;;;8.45;;
52124;SDS011;38119;52.710;6.398;2023-07-22T00:55:58;15.15;;;8.23;;
52124;SDS011;38119;52.710;6.398;2023-07-22T00:58:24;15.00;;;8.20;;
52124;SDS011;38119;52.710;6.398;2023-07-22T01:00:50;16.70;;;8.25;;
52124;SDS011;38119;52.710;6.398;2023-07-22T01:03:17;15.65;;;8.73;;
52124;SDS011;38119;52.710;6.398;2023-07-22T01:05:44;13.15;;;8.10;;
52124;SDS011;38119;52.710;6.398;2023-07-22T01:08:12;17.55;;;9.43;;
52124;SDS011;38119;52.710;6.398;2023-07-22T01:10:39;16.10;;;8.35;;
52124;SDS011;38119;52.710;6.398;2023-07-22T01:13:04;19.95;;;9.18;;
52124;SDS011;38119;52.710;6.398;2023-07-22T01:15:30;13.52;;;8.23;;
52124;SDS011;38119;52.710;6.398;2023-07-22T01:17:56;16.55;;;8.85;;
52124;SDS011;38119;52.710;6.398;2023-07-22T01:20:26;14.98;;;8.60;;
52124;SDS011;38119;52.710;6.398;2023-07-22T01:22:54;12.98;;;8.20;;
52124;SDS011;38119;52.710;6.398;2023-07-22T01:25:20;12.73;;;7.80;;
52124;SDS011;38119;52.710;6.398;2023-07-22T01:27:49;16.13;;;8.55;;
52124;SDS011;38119;52.710;6.398;2023-07-22T01:30:16;14.25;;;8.93;;
52124;SDS011;38119;52.710;6.398;2023-07-22T01:32:42;17.13;;;8.98;;
52124;SDS011;38119;52.710;6.398;2023-07-22T01:35:08;15.63;;;8.55;;
52124;SDS011;38119;52.710;6.398;2023-07-22T01:37:34;15.73;;;8.55;;
52124;SDS011;38119;52.710;6.398;2023-07-22T01:40:00;12.73;;;7.93;;
52124;SDS011;38119;52.710;6.398;2023-07-22T01:42:26;17.15;;;8.90;;
52124;SDS011;38119;52.710;6.398;2023-07-22T01:44:52;14.65;;;8.10;;
52124;SDS011;38119;52.710;6.398;2023-07-22T01:47:18;15.60;;;8.50;;
52124;SDS011;38119;52.710;6.398;2023-07-22T01:49:44;12.68;;;7.97;;
52124;SDS011;38119;52.710;6.398;2023-07-22T01:52:10;16.63;;;8.80;;
52124;SDS011;38119;52.710;6.398;2023-07-22T01:54:35;15.65;;;8.50;;
52124;SDS011;38119;52.710;6.398;2023-07-22T01:57:01;15.70;;;8.57;;
52124;SDS011;38119;52.710;6.398;2023-07-22T01:59:27;14.35;;;8.07;;
52124;SDS011;38119;52.710;6.398;2023-07-22T02:01:52;14.05;;;7.93;;
52124;SDS011;38119;52.710;6.398;2023-07-22T02:04:18;16.63;;;8.80;;
52124;SDS011;38119;52.710;6.398;2023-07-22T02:06:43;15.65;;;9.23;;
52124;SDS011;38119;52.710;6.398;2023-07-22T02:09:09;16.13;;;9.38;;
52124;SDS011;38119;52.710;6.398;2023-07-22T02:11:38;17.65;;;8.65;;
52124;SDS011;38119;52.710;6.398;2023-07-22T02:14:04;17.25;;;8.32;;
52124;SDS011;38119;52.710;6.398;2023-07-22T02:16:33;16.73;;;8.65;;
52124;SDS011;38119;52.710;6.398;2023-07-22T02:19:00;14.65;;;8.82;;
52124;SDS011;38119;52.710;6.398;2023-07-22T02:21:25;16.35;;;9.43;;
52124;SDS011;38119;52.710;6.398;2023-07-22T02:23:51;17.08;;;9.15;;
52124;SDS011;38119;52.710;6.398;2023-07-22T02:26:17;16.63;;;8.98;;
52124;SDS011;38119;52.710;6.398;2023-07-22T02:28:42;15.73;;;8.80;;
52124;SDS011;38119;52.710;6.398;2023-07-22T02:31:08;17.42;;;9.18;;
52124;SDS011;38119;52.710;6.398;2023-07-22T02:33:33;18.05;;;9.10;;
52124;SDS011;38119;52.710;6.398;2023-07-22T02:35:59;17.20;;;10.00;;
52124;SDS011;38119;52.710;6.398;2023-07-22T02:38:25;18.35;;;10.50;;
52124;SDS011;38119;52.710;6.398;2023-07-22T02:40:51;20.83;;;9.65;;
52124;SDS011;38119;52.710;6.398;2023-07-22T02:43:17;20.83;;;10.30;;
52124;SDS011;38119;52.710;6.398;2023-07-22T02:45:42;20.05;;;10.40;;
52124;SDS011;38119;52.710;6.398;2023-07-22T02:48:09;18.38;;;9.88;;
52124;SDS011;38119;52.710;6.398;2023-07-22T02:50:34;20.90;;;9.98;;
52124;SDS011;38119;52.710;6.398;2023-07-22T02:53:01;16.42;;;10.25;;
52124;SDS011;38119;52.710;6.398;2023-07-22T02:55:27;19.05;;;10.13;;
52124;SDS011;38119;52.710;6.398;2023-07-22T02:57:53;18.92;;;9.90;;
52124;SDS011;38119;52.710;6.398;2023-07-22T03:00:19;20.38;;;10.18;;
52124;SDS011;38119;52.710;6.398;2023-07-22T03:02:51;17.35;;;10.20;;
52124;SDS011;38119;52.710;6.398;2023-07-22T03:05:18;21.15;;;10.40;;
52124;SDS011;38119;52.710;6.398;2023-07-22T03:07:44;17.77;;;10.32;;
52124;SDS011;38119;52.710;6.398;2023-07-22T03:10:10;20.55;;;9.88;;
52124;SDS011;38119;52.710;6.398;2023-07-22T03:12:36;19.33;;;10.77;;
52124;SDS011;38119;52.710;6.398;2023-07-22T03:15:02;19.10;;;10.63;;
52124;SDS011;38119;52.710;6.398;2023-07-22T03:17:33;19.73;;;10.48;;
52124;SDS011;38119;52.710;6.398;2023-07-22T03:20:01;17.48;;;9.73;;
52124;SDS011;38119;52.710;6.398;2023-07-22T03:22:29;19.65;;;9.48;;
52124;SDS011;38119;52.710;6.398;2023-07-22T03:24:54;17.30;;;10.25;;
52124;SDS011;38119;52.710;6.398;2023-07-22T03:27:20;15.70;;;9.45;;
52124;SDS011;38119;52.710;6.398;2023-07-22T03:29:46;17.27;;;10.25;;
52124;SDS011;38119;52.710;6.398;2023-07-22T03:32:12;20.02;;;10.43;;
52124;SDS011;38119;52.710;6.398;2023-07-22T03:34:37;15.75;;;9.95;;
52124;SDS011;38119;52.710;6.398;2023-07-22T03:37:03;18.95;;;10.20;;
52124;SDS011;38119;52.710;6.398;2023-07-22T03:39:29;17.35;;;9.98;;
52124;SDS011;38119;52.710;6.398;2023-07-22T03:41:54;20.38;;;10.80;;
52124;SDS011;38119;52.710;6.398;2023-07-22T03:44:20;21.10;;;9.82;;
52124;SDS011;38119;52.710;6.398;2023-07-22T03:46:45;16.77;;;9.40;;
52124;SDS011;38119;52.710;6.398;2023-07-22T03:49:11;14.20;;;9.25;;
52124;SDS011;38119;52.710;6.398;2023-07-22T03:51:36;16.13;;;10.20;;
52124;SDS011;38119;52.710;6.398;2023-07-22T03:54:02;18.00;;;9.98;;
52124;SDS011;38119;52.710;6.398;2023-07-22T03:56:28;15.48;;;9.40;;
52124;SDS011;38119;52.710;6.398;2023-07-22T03:58:53;17.65;;;10.68;;
52124;SDS011;38119;52.710;6.398;2023-07-22T04:01:19;15.73;;;10.13;;
52124;SDS011;38119;52.710;6.398;2023-07-22T04:03:45;15.80;;;9.38;;
52124;SDS011;38119;52.710;6.398;2023-07-22T04:06:10;16.25;;;9.30;;
52124;SDS011;38119;52.710;6.398;2023-07-22T04:08:36;17.75;;;9.63;;
52124;SDS011;38119;52.710;6.398;2023-07-22T04:11:02;15.70;;;9.57;;
52124;SDS011;38119;52.710;6.398;2023-07-22T04:13:27;15.07;;;9.07;;
52124;SDS011;38119;52.710;6.398;2023-07-22T04:15:53;16.92;;;9.00;;
52124;SDS011;38119;52.710;6.398;2023-07-22T04:18:19;16.33;;;9.75;;
52124;SDS011;38119;52.710;6.398;2023-07-22T04:20:46;15.05;;;9.10;;
52124;SDS011;38119;52.710;6.398;2023-07-22T04:23:15;15.38;;;9.15;;
52124;SDS011;38119;52.710;6.398;2023-07-22T04:25:41;15.43;;;9.45;;
52124;SDS011;38119;52.710;6.398;2023-07-22T04:28:07;17.00;;;9.80;;
52124;SDS011;38119;52.710;6.398;2023-07-22T04:30:34;20.30;;;10.27;;
52124;SDS011;38119;52.710;6.398;2023-07-22T04:33:00;16.98;;;10.13;;
52124;SDS011;38119;52.710;6.398;2023-07-22T04:35:26;16.42;;;10.48;;
52124;SDS011;38119;52.710;6.398;2023-07-22T04:37:51;19.23;;;10.27;;
52124;SDS011;38119;52.710;6.398;2023-07-22T04:40:18;18.80;;;10.57;;
52124;SDS011;38119;52.710;6.398;2023-07-22T04:42:44;16.52;;;10.02;;
52124;SDS011;38119;52.710;6.398;2023-07-22T04:45:11;20.27;;;10.00;;
52124;SDS011;38119;52.710;6.398;2023-07-22T04:47:37;17.88;;;10.43;;
52124;SDS011;38119;52.710;6.398;2023-07-22T04:50:04;17.42;;;10.15;;
52124;SDS011;38119;52.710;6.398;2023-07-22T04:52:34;20.50;;;10.23;;
52124;SDS011;38119;52.710;6.398;2023-07-22T04:55:00;16.50;;;10.18;;
52124;SDS011;38119;52.710;6.398;2023-07-22T04:57:27;17.52;;;10.15;;
52124;SDS011;38119;52.710;6.398;2023-07-22T04:59:53;16.40;;;10.25;;
52124;SDS011;38119;52.710;6.398;2023-07-22T05:02:18;19.00;;;10.02;;
52124;SDS011;38119;52.710;6.398;2023-07-22T05:04:44;16.98;;;9.50;;
52124;SDS011;38119;52.710;6.398;2023-07-22T05:07:09;18.95;;;10.18;;
52124;SDS011;38119;52.710;6.398;2023-07-22T05:09:36;17.30;;;9.77;;
52124;SDS011;38119;52.710;6.398;2023-07-22T05:12:02;16.48;;;9.88;;
52124;SDS011;38119;52.710;6.398;2023-07-22T05:14:28;17.80;;;9.88;;
52124;SDS011;38119;52.710;6.398;2023-07-22T05:16:53;16.38;;;9.65;;
52124;SDS011;38119;52.710;6.398;2023-07-22T05:19:19;17.27;;;10.68;;
52124;SDS011;38119;52.710;6.398;2023-07-22T05:21:45;19.10;;;10.77;;
52124;SDS011;38119;52.710;6.398;2023-07-22T05:24:11;18.52;;;9.82;;
52124;SDS011;38119;52.710;6.398;2023-07-22T05:26:37;20.33;;;10.82;;
52124;SDS011;38119;52.710;6.398;2023-07-22T05:29:03;19.27;;;11.07;;
52124;SDS011;38119;52.710;6.398;2023-07-22T05:31:28;17.10;;;10.82;;
52124;SDS011;38119;52.710;6.398;2023-07-22T05:33:54;18.73;;;11.23;;
52124;SDS011;38119;52.710;6.398;2023-07-22T05:36:20;19.45;;;12.27;;
52124;SDS011;38119;52.710;6.398;2023-07-22T05:38:46;17.17;;;10.82;;
52124;SDS011;38119;52.710;6.398;2023-07-22T05:41:12;21.40;;;12.00;;
52124;SDS011;38119;52.710;6.398;2023-07-22T05:43:37;19.77;;;12.25;;
52124;SDS011;38119;52.710;6.398;2023-07-22T05:46:03;22.67;;;12.80;;
52124;SDS011;38119;52.710;6.398;2023-07-22T05:48:28;20.80;;;12.80;;
52124;SDS011;38119;52.710;6.398;2023-07-22T05:50:54;22.38;;;12.85;;
52124;SDS011;38119;52.710;6.398;2023-07-22T05:53:20;25.38;;;13.18;;
52124;SDS011;38119;52.710;6.398;2023-07-22T05:55:45;21.75;;;13.38;;
52124;SDS011;38119;52.710;6.398;2023-07-22T05:58:15;26.08;;;15.23;;
52124;SDS011;38119;52.710;6.398;2023-07-22T06:00:42;25.40;;;15.57;;
52124;SDS011;38119;52.710;6.398;2023-07-22T06:03:08;23.85;;;14.68;;
52124;SDS011;38119;52.710;6.398;2023-07-22T06:05:34;25.77;;;15.40;;
52124;SDS011;38119;52.710;6.398;2023-07-22T06:07:59;24.90;;;15.18;;
52124;SDS011;38119;52.710;6.398;2023-07-22T06:10:25;28.08;;;15.68;;
52124;SDS011;38119;52.710;6.398;2023-07-22T06:12:51;29.20;;;16.38;;
52124;SDS011;38119;52.710;6.398;2023-07-22T06:15:16;25.38;;;14.43;;
52124;SDS011;38119;52.710;6.398;2023-07-22T06:17:42;28.60;;;16.05;;
52124;SDS011;38119;52.710;6.398;2023-07-22T06:20:08;30.63;;;17.17;;
52124;SDS011;38119;52.710;6.398;2023-07-22T06:22:34;28.08;;;16.05;;
52124;SDS011;38119;52.710;6.398;2023-07-22T06:24:59;28.35;;;16.17;;
52124;SDS011;38119;52.710;6.398;2023-07-22T06:27:25;25.55;;;15.77;;
52124;SDS011;38119;52.710;6.398;2023-07-22T06:29:50;30.98;;;16.50;;
52124;SDS011;38119;52.710;6.398;2023-07-22T06:32:16;26.73;;;15.95;;
52124;SDS011;38119;52.710;6.398;2023-07-22T06:34:42;29.83;;;17.23;;
52124;SDS011;38119;52.710;6.398;2023-07-22T06:37:07;26.88;;;15.88;;
52124;SDS011;38119;52.710;6.398;2023-07-22T06:39:33;29.00;;;16.92;;
52124;SDS011;38119;52.710;6.398;2023-07-22T06:41:58;27.30;;;17.02;;
52124;SDS011;38119;52.710;6.398;2023-07-22T06:44:24;28.80;;;16.65;;
52124;SDS011;38119;52.710;6.398;2023-07-22T06:46:50;28.50;;;16.05;;
52124;SDS011;38119;52.710;6.398;2023-07-22T06:49:15;30.00;;;17.05;;
52124;SDS011;38119;52.710;6.398;2023-07-22T06:51:41;31.80;;;17.10;;
52124;SDS011;38119;52.710;6.398;2023-07-22T06:54:06;26.67;;;16.48;;
52124;SDS011;38119;52.710;6.398;2023-07-22T06:56:32;29.75;;;15.82;;
52124;SDS011;38119;52.710;6.398;2023-07-22T06:58:58;27.35;;;16.63;;
52124;SDS011;38119;52.710;6.398;2023-07-22T07:01:26;28.77;;;17.33;;
52124;SDS011;38119;52.710;6.398;2023-07-22T07:03:52;30.33;;;17.67;;
52124;SDS011;38119;52.710;6.398;2023-07-22T07:06:17;30.40;;;18.27;;
52124;SDS011;38119;52.710;6.398;2023-07-22T07:08:43;25.48;;;16.67;;
52124;SDS011;38119;52.710;6.398;2023-07-22T07:11:09;28.63;;;17.17;;
52124;SDS011;38119;52.710;6.398;2023-07-22T07:13:34;28.98;;;17.10;;
52124;SDS011;38119;52.710;6.398;2023-07-22T07:16:19;27.35;;;16.38;;
52124;SDS011;38119;52.710;6.398;2023-07-22T07:18:52;29.00;;;17.08;;
52124;SDS011;38119;52.710;6.398;2023-07-22T07:21:19;27.50;;;16.77;;
52124;SDS011;38119;52.710;6.398;2023-07-22T07:23:45;28.08;;;16.20;;
52124;SDS011;38119;52.710;6.398;2023-07-22T07:26:11;27.35;;;15.73;;
52124;SDS011;38119;52.710;6.398;2023-07-22T07:28:36;29.40;;;16.05;;
52124;SDS011;38119;52.710;6.398;2023-07-22T07:31:02;26.27;;;15.32;;
52124;SDS011;38119;52.710;6.398;2023-07-22T07:33:28;26.00;;;15.85;;
52124;SDS011;38119;52.710;6.398;2023-07-22T07:35:54;25.50;;;16.05;;
52124;SDS011;38119;52.710;6.398;2023-07-22T07:38:19;28.33;;;16.48;;
52124;SDS011;38119;52.710;6.398;2023-07-22T07:40:45;27.92;;;15.70;;
52124;SDS011;38119;52.710;6.398;2023-07-22T07:43:11;27.27;;;16.00;;
52124;SDS011;38119;52.710;6.398;2023-07-22T07:45:38;27.83;;;15.98;;
52124;SDS011;38119;52.710;6.398;2023-07-22T07:48:04;28.83;;;16.70;;
52124;SDS011;38119;52.710;6.398;2023-07-22T07:50:30;24.75;;;15.40;;
52124;SDS011;38119;52.710;6.398;2023-07-22T07:52:57;22.88;;;14.50;;
52124;SDS011;38119;52.710;6.398;2023-07-22T07:55:24;26.80;;;15.60;;
52124;SDS011;38119;52.710;6.398;2023-07-22T07:57:50;26.55;;;15.40;;
52124;SDS011;38119;52.710;6.398;2023-07-22T08:00:16;25.08;;;14.85;;
52124;SDS011;38119;52.710;6.398;2023-07-22T08:02:42;23.85;;;14.50;;
52124;SDS011;38119;52.710;6.398;2023-07-22T08:05:08;25.63;;;15.02;;
52124;SDS011;38119;52.710;6.398;2023-07-22T08:07:33;23.73;;;14.57;;
52124;SDS011;38119;52.710;6.398;2023-07-22T08:10:00;20.50;;;13.82;;
52124;SDS011;38119;52.710;6.398;2023-07-22T08:12:26;24.30;;;15.00;;
52124;SDS011;38119;52.710;6.398;2023-07-22T08:14:52;25.25;;;14.73;;
52124;SDS011;38119;52.710;6.398;2023-07-22T08:17:18;25.92;;;15.30;;
52124;SDS011;38119;52.710;6.398;2023-07-22T08:19:44;23.23;;;14.57;;
52124;SDS011;38119;52.710;6.398;2023-07-22T08:22:10;22.67;;;15.02;;
52124;SDS011;38119;52.710;6.398;2023-07-22T08:24:35;24.85;;;15.38;;
52124;SDS011;38119;52.710;6.398;2023-07-22T08:27:01;22.65;;;14.25;;
52124;SDS011;38119;52.710;6.398;2023-07-22T08:29:27;18.80;;;13.68;;
52124;SDS011;38119;52.710;6.398;2023-07-22T08:31:53;21.92;;;13.93;;
52124;SDS011;38119;52.710;6.398;2023-07-22T08:34:18;22.67;;;13.73;;
52124;SDS011;38119;52.710;6.398;2023-07-22T08:36:44;23.50;;;13.70;;
52124;SDS011;38119;52.710;6.398;2023-07-22T08:39:09;22.02;;;13.50;;
52124;SDS011;38119;52.710;6.398;2023-07-22T08:41:35;24.42;;;13.88;;
52124;SDS011;38119;52.710;6.398;2023-07-22T08:44:01;21.25;;;13.07;;
52124;SDS011;38119;52.710;6.398;2023-07-22T08:46:29;24.10;;;13.40;;
52124;SDS011;38119;52.710;6.398;2023-07-22T08:48:59;24.08;;;13.57;;
52124;SDS011;38119;52.710;6.398;2023-07-22T08:51:26;20.05;;;13.43;;
52124;SDS011;38119;52.710;6.398;2023-07-22T08:53:56;23.73;;;13.98;;
52124;SDS011;38119;52.710;6.398;2023-07-22T08:56:25;22.25;;;13.40;;
52124;SDS011;38119;52.710;6.398;2023-07-22T08:58:51;21.33;;;13.52;;
52124;SDS011;38119;52.710;6.398;2023-07-22T09:01:18;19.00;;;12.38;;
52124;SDS011;38119;52.710;6.398;2023-07-22T09:03:43;18.67;;;12.43;;
52124;SDS011;38119;52.710;6.398;2023-07-22T09:06:12;18.77;;;11.57;;
52124;SDS011;38119;52.710;6.398;2023-07-22T09:08:38;19.05;;;12.23;;
52124;SDS011;38119;52.710;6.398;2023-07-22T09:11:04;21.88;;;13.13;;
52124;SDS011;38119;52.710;6.398;2023-07-22T09:13:30;22.65;;;12.30;;
52124;SDS011;38119;52.710;6.398;2023-07-22T09:15:57;19.23;;;11.73;;
52124;SDS011;38119;52.710;6.398;2023-07-22T09:18:24;24.40;;;11.85;;
52124;SDS011;38119;52.710;6.398;2023-07-22T09:20:50;20.48;;;11.88;;
52124;SDS011;38119;52.710;6.398;2023-07-22T09:23:16;17.10;;;10.52;;
52124;SDS011;38119;52.710;6.398;2023-07-22T09:25:42;17.60;;;10.65;;
52124;SDS011;38119;52.710;6.398;2023-07-22T09:28:08;16.77;;;10.85;;
52124;SDS011;38119;52.710;6.398;2023-07-22T09:30:35;16.77;;;10.70;;
52124;SDS011;38119;52.710;6.398;2023-07-22T09:33:03;15.18;;;10.40;;
52124;SDS011;38119;52.710;6.398;2023-07-22T09:35:31;18.00;;;11.27;;
52124;SDS011;38119;52.710;6.398;2023-07-22T09:38:11;16.10;;;10.40;;
52124;SDS011;38119;52.710;6.398;2023-07-22T09:40:38;16.73;;;10.52;;
52124;SDS011;38119;52.710;6.398;2023-07-22T09:43:06;16.25;;;10.27;;
52124;SDS011;38119;52.710;6.398;2023-07-22T09:45:35;17.20;;;10.82;;
52124;SDS011;38119;52.710;6.398;2023-07-22T09:48:02;17.73;;;10.55;;
52124;SDS011;38119;52.710;6.398;2023-07-22T09:50:29;15.77;;;10.48;;
52124;SDS011;38119;52.710;6.398;2023-07-22T09:52:55;15.15;;;10.30;;
52124;SDS011;38119;52.710;6.398;2023-07-22T09:55:24;15.65;;;10.35;;
52124;SDS011;38119;52.710;6.398;2023-07-22T09:57:54;14.70;;;10.07;;
52124;SDS011;38119;52.710;6.398;2023-07-22T10:00:27;16.00;;;10.13;;
52124;SDS011;38119;52.710;6.398;2023-07-22T10:02:58;16.60;;;10.60;;
52124;SDS011;38119;52.710;6.398;2023-07-22T10:05:26;17.55;;;10.65;;
52124;SDS011;38119;52.710;6.398;2023-07-22T10:07:57;15.82;;;10.23;;
52124;SDS011;38119;52.710;6.398;2023-07-22T10:10:33;15.68;;;10.32;;
52124;SDS011;38119;52.710;6.398;2023-07-22T10:13:00;14.52;;;10.15;;
52124;SDS011;38119;52.710;6.398;2023-07-22T10:15:31;15.45;;;9.88;;
52124;SDS011;38119;52.710;6.398;2023-07-22T10:17:59;16.70;;;10.50;;
52124;SDS011;38119;52.710;6.398;2023-07-22T10:20:25;15.07;;;10.00;;
52124;SDS011;38119;52.710;6.398;2023-07-22T10:22:52;14.85;;;10.02;;
52124;SDS011;38119;52.710;6.398;2023-07-22T10:25:18;17.75;;;11.80;;
52124;SDS011;38119;52.710;6.398;2023-07-22T10:27:46;20.13;;;11.93;;
52124;SDS011;38119;52.710;6.398;2023-07-22T10:30:13;18.92;;;11.35;;
52124;SDS011;38119;52.710;6.398;2023-07-22T10:32:40;19.75;;;11.35;;
52124;SDS011;38119;52.710;6.398;2023-07-22T10:35:08;21.30;;;11.00;;
52124;SDS011;38119;52.710;6.398;2023-07-22T10:37:35;15.63;;;10.25;;
52124;SDS011;38119;52.710;6.398;2023-07-22T10:40:15;18.20;;;11.00;;
52124;SDS011;38119;52.710;6.398;2023-07-22T10:42:43;16.85;;;10.20;;
52124;SDS011;38119;52.710;6.398;2023-07-22T10:45:32;15.45;;;10.65;;
52124;SDS011;38119;52.710;6.398;2023-07-22T10:53:06;20.65;;;12.52;;
52124;SDS011;38119;52.710;6.398;2023-07-22T10:55:38;16.90;;;10.30;;
52124;SDS011;38119;52.710;6.398;2023-07-22T11:06:36;16.38;;;9.55;;
52124;SDS011;38119;52.710;6.398;2023-07-22T11:09:03;16.27;;;9.73;;
52124;SDS011;38119;52.710;6.398;2023-07-22T11:11:36;14.68;;;9.57;;
52124;SDS011;38119;52.710;6.398;2023-07-22T11:16:45;14.27;;;8.88;;
52124;SDS011;38119;52.710;6.398;2023-07-22T11:19:13;16.70;;;9.13;;
52124;SDS011;38119;52.710;6.398;2023-07-22T11:21:39;14.90;;;9.82;;
52124;SDS011;38119;52.710;6.398;2023-07-22T11:24:06;14.73;;;9.93;;
52124;SDS011;38119;52.710;6.398;2023-07-22T11:26:33;13.25;;;9.27;;
52124;SDS011;38119;52.710;6.398;2023-07-22T11:29:02;14.85;;;9.10;;
52124;SDS011;38119;52.710;6.398;2023-07-22T11:33:58;13.60;;;9.40;;
52124;SDS011;38119;52.710;6.398;2023-07-22T11:36:24;15.25;;;10.45;;
52124;SDS011;38119;52.710;6.398;2023-07-22T11:38:51;16.75;;;10.45;;
52124;SDS011;38119;52.710;6.398;2023-07-22T11:41:17;14.13;;;10.38;;
52124;SDS011;38119;52.710;6.398;2023-07-22T11:43:43;17.02;;;12.10;;
52124;SDS011;38119;52.710;6.398;2023-07-22T11:46:09;16.95;;;11.00;;
52124;SDS011;38119;52.710;6.398;2023-07-22T11:48:35;18.25;;;12.32;;
52124;SDS011;38119;52.710;6.398;2023-07-22T11:51:00;16.08;;;11.38;;
52124;SDS011;38119;52.710;6.398;2023-07-22T11:53:26;21.70;;;12.40;;
52124;SDS011;38119;52.710;6.398;2023-07-22T11:55:54;14.95;;;12.45;;
52124;SDS011;38119;52.710;6.398;2023-07-22T11:58:24;15.30;;;12.00;;
52124;SDS011;38119;52.710;6.398;2023-07-22T12:01:07;17.92;;;11.93;;
52124;SDS011;38119;52.710;6.398;2023-07-22T12:03:35;19.58;;;12.80;;
52124;SDS011;38119;52.710;6.398;2023-07-22T12:06:05;17.05;;;11.85;;
52124;SDS011;38119;52.710;6.398;2023-07-22T12:08:32;14.82;;;10.82;;
52124;SDS011;38119;52.710;6.398;2023-07-22T12:10:58;14.13;;;11.52;;
52124;SDS011;38119;52.710;6.398;2023-07-22T12:13:24;13.10;;;10.93;;
52124;SDS011;38119;52.710;6.398;2023-07-22T12:16:03;13.90;;;11.38;;
52124;SDS011;38119;52.710;6.398;2023-07-22T12:18:46;13.70;;;10.35;;
52124;SDS011;38119;52.710;6.398;2023-07-22T12:21:15;12.77;;;10.38;;
52124;SDS011;38119;52.710;6.398;2023-07-22T12:23:41;12.65;;;10.40;;
52124;SDS011;38119;52.710;6.398;2023-07-22T12:26:08;12.90;;;9.73;;
52124;SDS011;38119;52.710;6.398;2023-07-22T12:28:34;10.27;;;8.77;;
52124;SDS011;38119;52.710;6.398;2023-07-22T12:31:00;11.32;;;9.63;;
52124;SDS011;38119;52.710;6.398;2023-07-22T12:33:26;10.32;;;7.30;;
52124;SDS011;38119;52.710;6.398;2023-07-22T12:35:55;9.93;;;7.07;;
52124;SDS011;38119;52.710;6.398;2023-07-22T12:38:22;10.10;;;6.50;;
52124;SDS011;38119;52.710;6.398;2023-07-22T12:40:48;11.38;;;6.88;;
52124;SDS011;38119;52.710;6.398;2023-07-22T12:43:13;9.00;;;6.55;;
52124;SDS011;38119;52.710;6.398;2023-07-22T12:45:39;12.27;;;7.00;;
52124;SDS011;38119;52.710;6.398;2023-07-22T12:48:05;10.07;;;7.43;;
52124;SDS011;38119;52.710;6.398;2023-07-22T12:50:31;10.52;;;7.38;;
52124;SDS011;38119;52.710;6.398;2023-07-22T12:52:58;11.68;;;7.72;;
52124;SDS011;38119;52.710;6.398;2023-07-22T12:55:24;11.70;;;7.57;;
52124;SDS011;38119;52.710;6.398;2023-07-22T12:57:49;11.38;;;8.38;;
52124;SDS011;38119;52.710;6.398;2023-07-22T13:00:15;10.23;;;7.60;;
52124;SDS011;38119;52.710;6.398;2023-07-22T13:02:41;12.10;;;7.20;;
52124;SDS011;38119;52.710;6.398;2023-07-22T13:05:07;12.88;;;8.30;;
52124;SDS011;38119;52.710;6.398;2023-07-22T13:07:33;11.98;;;8.70;;
52124;SDS011;38119;52.710;6.398;2023-07-22T13:09:58;14.02;;;8.57;;
52124;SDS011;38119;52.710;6.398;2023-07-22T13:12:27;14.13;;;8.45;;
52124;SDS011;38119;52.710;6.398;2023-07-22T13:14:53;13.77;;;8.02;;
52124;SDS011;38119;52.710;6.398;2023-07-22T13:17:18;11.57;;;8.13;;
52124;SDS011;38119;52.710;6.398;2023-07-22T13:19:44;11.00;;;7.60;;
52124;SDS011;38119;52.710;6.398;2023-07-22T13:22:09;11.60;;;7.93;;
52124;SDS011;38119;52.710;6.398;2023-07-22T13:24:35;12.02;;;8.00;;
52124;SDS011;38119;52.710;6.398;2023-07-22T13:27:01;12.10;;;8.07;;
52124;SDS011;38119;52.710;6.398;2023-07-22T13:29:26;11.43;;;8.15;;
52124;SDS011;38119;52.710;6.398;2023-07-22T13:31:52;12.43;;;9.13;;
52124;SDS011;38119;52.710;6.398;2023-07-22T13:34:18;11.80;;;8.30;;
52124;SDS011;38119;52.710;6.398;2023-07-22T13:36:44;11.40;;;8.75;;
52124;SDS011;38119;52.710;6.398;2023-07-22T13:39:10;14.93;;;8.80;;
52124;SDS011;38119;52.710;6.398;2023-07-22T13:41:36;10.38;;;7.95;;
52124;SDS011;38119;52.710;6.398;2023-07-22T13:44:01;11.45;;;8.73;;
52124;SDS011;38119;52.710;6.398;2023-07-22T13:46:27;14.07;;;9.15;;
52124;SDS011;38119;52.710;6.398;2023-07-22T13:48:53;12.88;;;9.18;;
52124;SDS011;38119;52.710;6.398;2023-07-22T13:51:19;13.60;;;9.57;;
52124;SDS011;38119;52.710;6.398;2023-07-22T13:53:44;12.90;;;9.57;;
52124;SDS011;38119;52.710;6.398;2023-07-22T13:56:10;11.50;;;8.65;;
52124;SDS011;38119;52.710;6.398;2023-07-22T13:58:35;12.93;;;9.27;;
52124;SDS011;38119;52.710;6.398;2023-07-22T14:01:01;13.98;;;8.95;;
52124;SDS011;38119;52.710;6.398;2023-07-22T14:03:27;12.07;;;9.00;;
52124;SDS011;38119;52.710;6.398;2023-07-22T14:05:53;14.20;;;8.68;;
52124;SDS011;38119;52.710;6.398;2023-07-22T14:08:19;9.60;;;8.60;;
52124;SDS011;38119;52.710;6.398;2023-07-22T14:10:44;14.60;;;9.57;;
52124;SDS011;38119;52.710;6.398;2023-07-22T14:13:10;12.85;;;10.07;;
52124;SDS011;38119;52.710;6.398;2023-07-22T14:15:36;12.95;;;9.77;;
52124;SDS011;38119;52.710;6.398;2023-07-22T14:18:01;13.98;;;10.38;;
52124;SDS011;38119;52.710;6.398;2023-07-22T14:20:28;14.15;;;10.68;;
52124;SDS011;38119;52.710;6.398;2023-07-22T14:22:55;17.08;;;11.13;;
52124;SDS011;38119;52.710;6.398;2023-07-22T14:25:21;14.35;;;11.23;;
52124;SDS011;38119;52.710;6.398;2023-07-22T14:27:47;15.38;;;11.23;;
52124;SDS011;38119;52.710;6.398;2023-07-22T14:30:13;13.20;;;11.43;;
52124;SDS011;38119;52.710;6.398;2023-07-22T14:32:39;15.93;;;12.13;;
52124;SDS011;38119;52.710;6.398;2023-07-22T14:35:04;18.08;;;12.00;;
52124;SDS011;38119;52.710;6.398;2023-07-22T14:37:30;14.73;;;12.20;;
52124;SDS011;38119;52.710;6.398;2023-07-22T14:39:56;18.00;;;12.05;;
52124;SDS011;38119;52.710;6.398;2023-07-22T14:42:22;17.40;;;12.68;;